sensor_id;sensor_type;location;lat;lon;timestamp;temperature;humidity
22925;DHT22;11628;51.072;3.712;2023-05-10T00:00:08;13.40;99.90
22925;DHT22;11628;51.072;3.712;2023-05-10T00:02:34;13.40;99.90
22925;DHT22;11628;51.072;3.712;2023-05-10T00:05:00;13.40;99.90
22925;DHT22;11628;51.072;3.712;2023-05-10T00:07:26;13.50;99.90
22925;DHT22;11628;51.072;3.712;2023-05-10T00:09:53;13.40;99.90
22925;DHT22;11628;51.072;3.712;2023-05-10T00:12:19;13.60;99.90
22925;DHT22;11628;51.072;3.712;2023-05-10T00:14:45;13.70;99.90
22925;DHT22;11628;51.072;3.712;2023-05-10T00:17:10;13.60;99.90
22925;DHT22;11628;51.072;3.712;2023-05-10T00:19:36;13.60;99.90
22925;DHT22;11628;51.072;3.712;2023-05-10T00:22:02;13.70;99.90
22925;DHT22;11628;51.072;3.712;2023-05-10T00:24:28;13.80;99.90
22925;DHT22;11628;51.072;3.712;2023-05-10T00:26:54;13.90;99.90
22925;DHT22;11628;51.072;3.712;2023-05-10T00:29:19;13.90;99.90
22925;DHT22;11628;51.072;3.712;2023-05-10T00:31:45;13.80;99.90
22925;DHT22;11628;51.072;3.712;2023-05-10T00:34:11;13.60;99.90
22925;DHT22;11628;51.072;3.712;2023-05-10T00:36:36;13.50;99.90
22925;DHT22;11628;51.072;3.712;2023-05-10T00:39:02;13.50;99.90
22925;DHT22;11628;51.072;3.712;2023-05-10T00:41:29;13.70;99.90
22925;DHT22;11628;51.072;3.712;2023-05-10T00:43:57;13.50;99.90
22925;DHT22;11628;51.072;3.712;2023-05-10T00:46:23;13.40;99.90
22925;DHT22;11628;51.072;3.712;2023-05-10T00:48:50;13.40;99.90
22925;DHT22;11628;51.072;3.712;2023-05-10T00:51:16;13.60;99.90
22925;DHT22;11628;51.072;3.712;2023-05-10T00:53:43;13.80;99.90
22925;DHT22;11628;51.072;3.712;2023-05-10T00:56:10;13.80;99.90
22925;DHT22;11628;51.072;3.712;2023-05-10T00:58:36;13.80;99.90
22925;DHT22;11628;51.072;3.712;2023-05-10T01:01:02;13.90;99.90
22925;DHT22;11628;51.072;3.712;2023-05-10T01:03:28;13.90;99.90
22925;DHT22;11628;51.072;3.712;2023-05-10T01:05:54;14.00;99.90
22925;DHT22;11628;51.072;3.712;2023-05-10T01:08:20;14.00;99.90
22925;DHT22;11628;51.072;3.712;2023-05-10T01:10:46;13.90;99.90
22925;DHT22;11628;51.072;3.712;2023-05-10T01:13:18;14.00;99.90
22925;DHT22;11628;51.072;3.712;2023-05-10T01:15:46;13.90;99.90
22925;DHT22;11628;51.072;3.712;2023-05-10T01:18:12;13.80;99.90
22925;DHT22;11628;51.072;3.712;2023-05-10T01:20:43;14.00;99.90
22925;DHT22;11628;51.072;3.712;2023-05-10T01:23:42;13.90;99.90
22925;DHT22;11628;51.072;3.712;2023-05-10T01:26:32;14.00;99.90
22925;DHT22;11628;51.072;3.712;2023-05-10T01:29:38;14.00;99.90
22925;DHT22;11628;51.072;3.712;2023-05-10T01:35:03;14.10;99.90
22925;DHT22;11628;51.072;3.712;2023-05-10T01:40:26;14.20;99.90
22925;DHT22;11628;51.072;3.712;2023-05-10T01:43:00;14.10;99.90
22925;DHT22;11628;51.072;3.712;2023-05-10T01:45:50;14.10;99.90
22925;DHT22;11628;51.072;3.712;2023-05-10T01:48:21;14.10;99.90
22925;DHT22;11628;51.072;3.712;2023-05-10T01:50:48;14.20;99.90
22925;DHT22;11628;51.072;3.712;2023-05-10T01:53:18;14.10;99.90
22925;DHT22;11628;51.072;3.712;2023-05-10T01:55:55;14.10;99.90
22925;DHT22;11628;51.072;3.712;2023-05-10T01:58:32;14.10;99.90
22925;DHT22;11628;51.072;3.712;2023-05-10T02:01:01;14.30;99.90
22925;DHT22;11628;51.072;3.712;2023-05-10T02:03:29;14.20;99.90
22925;DHT22;11628;51.072;3.712;2023-05-10T02:05:57;14.10;99.90
22925;DHT22;11628;51.072;3.712;2023-05-10T02:08:24;14.00;99.90
22925;DHT22;11628;51.072;3.712;2023-05-10T02:10:53;14.00;99.90
22925;DHT22;11628;51.072;3.712;2023-05-10T02:13:20;14.00;99.90
22925;DHT22;11628;51.072;3.712;2023-05-10T02:15:48;14.10;99.90
22925;DHT22;11628;51.072;3.712;2023-05-10T02:18:14;14.10;99.90
22925;DHT22;11628;51.072;3.712;2023-05-10T02:20:42;14.10;99.90
22925;DHT22;11628;51.072;3.712;2023-05-10T02:23:08;14.00;99.90
22925;DHT22;11628;51.072;3.712;2023-05-10T02:25:35;14.10;99.90
22925;DHT22;11628;51.072;3.712;2023-05-10T02:28:05;14.10;99.90
22925;DHT22;11628;51.072;3.712;2023-05-10T02:30:33;14.20;99.90
22925;DHT22;11628;51.072;3.712;2023-05-10T02:33:01;14.20;99.90
22925;DHT22;11628;51.072;3.712;2023-05-10T02:35:28;14.20;99.90
22925;DHT22;11628;51.072;3.712;2023-05-10T02:37:54;14.10;99.90
22925;DHT22;11628;51.072;3.712;2023-05-10T02:40:22;14.10;99.90
22925;DHT22;11628;51.072;3.712;2023-05-10T02:42:48;14.10;99.90
22925;DHT22;11628;51.072;3.712;2023-05-10T02:45:19;14.10;99.90
22925;DHT22;11628;51.072;3.712;2023-05-10T02:47:46;14.20;99.90
22925;DHT22;11628;51.072;3.712;2023-05-10T02:50:12;14.20;99.90
22925;DHT22;11628;51.072;3.712;2023-05-10T02:52:46;14.20;99.90
22925;DHT22;11628;51.072;3.712;2023-05-10T02:55:15;14.30;99.90
22925;DHT22;11628;51.072;3.712;2023-05-10T02:58:02;14.30;99.90
22925;DHT22;11628;51.072;3.712;2023-05-10T03:00:28;14.40;99.90
22925;DHT22;11628;51.072;3.712;2023-05-10T03:02:53;14.30;99.90
22925;DHT22;11628;51.072;3.712;2023-05-10T03:05:20;14.30;99.90
22925;DHT22;11628;51.072;3.712;2023-05-10T03:07:46;14.30;99.90
22925;DHT22;11628;51.072;3.712;2023-05-10T03:10:12;14.30;99.90
22925;DHT22;11628;51.072;3.712;2023-05-10T03:18:15;14.30;99.90
22925;DHT22;11628;51.072;3.712;2023-05-10T03:20:46;14.30;99.90
22925;DHT22;11628;51.072;3.712;2023-05-10T03:23:20;14.30;99.90
22925;DHT22;11628;51.072;3.712;2023-05-10T03:25:48;14.30;99.90
22925;DHT22;11628;51.072;3.712;2023-05-10T03:28:15;14.40;99.90
22925;DHT22;11628;51.072;3.712;2023-05-10T03:30:43;14.40;99.90
22925;DHT22;11628;51.072;3.712;2023-05-10T03:33:09;14.40;99.90
22925;DHT22;11628;51.072;3.712;2023-05-10T03:35:34;14.40;99.90
22925;DHT22;11628;51.072;3.712;2023-05-10T03:38:00;14.40;99.90
22925;DHT22;11628;51.072;3.712;2023-05-10T03:40:27;14.50;99.90
22925;DHT22;11628;51.072;3.712;2023-05-10T03:42:55;14.50;99.90
22925;DHT22;11628;51.072;3.712;2023-05-10T03:45:20;14.50;99.90
22925;DHT22;11628;51.072;3.712;2023-05-10T03:47:46;14.50;99.90
22925;DHT22;11628;51.072;3.712;2023-05-10T03:50:12;14.50;99.90
22925;DHT22;11628;51.072;3.712;2023-05-10T03:52:37;14.50;99.90
22925;DHT22;11628;51.072;3.712;2023-05-10T03:55:05;14.40;99.90
22925;DHT22;11628;51.072;3.712;2023-05-10T03:57:31;14.40;99.90
22925;DHT22;11628;51.072;3.712;2023-05-10T03:59:57;14.40;99.90
22925;DHT22;11628;51.072;3.712;2023-05-10T04:02:23;14.40;99.90
22925;DHT22;11628;51.072;3.712;2023-05-10T04:04:48;14.40;99.90
22925;DHT22;11628;51.072;3.712;2023-05-10T04:07:14;14.40;99.90
22925;DHT22;11628;51.072;3.712;2023-05-10T04:09:40;14.40;99.90
22925;DHT22;11628;51.072;3.712;2023-05-10T04:12:06;14.30;99.90
22925;DHT22;11628;51.072;3.712;2023-05-10T04:14:32;14.40;99.90
22925;DHT22;11628;51.072;3.712;2023-05-10T04:16:58;14.30;99.90
22925;DHT22;11628;51.072;3.712;2023-05-10T04:19:23;14.30;99.90
22925;DHT22;11628;51.072;3.712;2023-05-10T04:21:49;14.30;99.90
22925;DHT22;11628;51.072;3.712;2023-05-10T04:24:14;14.40;99.90
22925;DHT22;11628;51.072;3.712;2023-05-10T04:26:40;14.50;99.90
22925;DHT22;11628;51.072;3.712;2023-05-10T04:29:06;14.60;99.90
22925;DHT22;11628;51.072;3.712;2023-05-10T04:31:32;14.60;99.90
22925;DHT22;11628;51.072;3.712;2023-05-10T04:33:57;14.60;99.90
22925;DHT22;11628;51.072;3.712;2023-05-10T04:36:23;14.50;99.90
22925;DHT22;11628;51.072;3.712;2023-05-10T04:38:49;14.50;99.90
22925;DHT22;11628;51.072;3.712;2023-05-10T04:41:15;14.50;99.90
22925;DHT22;11628;51.072;3.712;2023-05-10T04:43:40;14.50;99.90
22925;DHT22;11628;51.072;3.712;2023-05-10T04:46:06;14.50;99.90
22925;DHT22;11628;51.072;3.712;2023-05-10T04:48:32;14.60;99.90
22925;DHT22;11628;51.072;3.712;2023-05-10T04:50:59;14.60;99.90
22925;DHT22;11628;51.072;3.712;2023-05-10T04:53:25;14.60;99.90
22925;DHT22;11628;51.072;3.712;2023-05-10T04:55:50;14.70;99.90
22925;DHT22;11628;51.072;3.712;2023-05-10T04:58:16;14.70;99.90
22925;DHT22;11628;51.072;3.712;2023-05-10T05:00:42;14.70;99.90
22925;DHT22;11628;51.072;3.712;2023-05-10T05:03:07;14.70;99.90
22925;DHT22;11628;51.072;3.712;2023-05-10T05:05:33;14.70;99.90
22925;DHT22;11628;51.072;3.712;2023-05-10T05:07:59;14.70;99.90
22925;DHT22;11628;51.072;3.712;2023-05-10T05:10:25;14.70;99.90
22925;DHT22;11628;51.072;3.712;2023-05-10T05:12:50;14.60;99.90
22925;DHT22;11628;51.072;3.712;2023-05-10T05:15:16;14.70;99.90
22925;DHT22;11628;51.072;3.712;2023-05-10T05:17:42;14.70;99.90
22925;DHT22;11628;51.072;3.712;2023-05-10T05:20:09;14.70;99.90
22925;DHT22;11628;51.072;3.712;2023-05-10T05:22:36;14.80;99.90
22925;DHT22;11628;51.072;3.712;2023-05-10T05:25:02;14.80;99.90
22925;DHT22;11628;51.072;3.712;2023-05-10T05:27:29;14.80;99.90
22925;DHT22;11628;51.072;3.712;2023-05-10T05:29:58;14.80;99.90
22925;DHT22;11628;51.072;3.712;2023-05-10T05:32:25;14.80;99.90
22925;DHT22;11628;51.072;3.712;2023-05-10T05:34:51;14.80;99.90
22925;DHT22;11628;51.072;3.712;2023-05-10T05:37:18;14.60;99.90
22925;DHT22;11628;51.072;3.712;2023-05-10T05:39:44;14.70;99.90
22925;DHT22;11628;51.072;3.712;2023-05-10T05:42:11;14.80;99.90
22925;DHT22;11628;51.072;3.712;2023-05-10T05:44:37;14.90;99.90
22925;DHT22;11628;51.072;3.712;2023-05-10T05:47:03;15.10;99.90
22925;DHT22;11628;51.072;3.712;2023-05-10T05:49:28;15.00;99.90
22925;DHT22;11628;51.072;3.712;2023-05-10T05:51:57;15.10;99.90
22925;DHT22;11628;51.072;3.712;2023-05-10T05:54:23;15.10;99.90
22925;DHT22;11628;51.072;3.712;2023-05-10T05:56:49;15.10;99.90
22925;DHT22;11628;51.072;3.712;2023-05-10T05:59:14;15.20;99.90
22925;DHT22;11628;51.072;3.712;2023-05-10T06:01:40;15.30;99.90
22925;DHT22;11628;51.072;3.712;2023-05-10T06:04:06;15.30;99.90
22925;DHT22;11628;51.072;3.712;2023-05-10T06:06:31;15.30;99.90
22925;DHT22;11628;51.072;3.712;2023-05-10T06:08:57;15.40;99.90
22925;DHT22;11628;51.072;3.712;2023-05-10T06:11:23;15.60;99.90
22925;DHT22;11628;51.072;3.712;2023-05-10T06:13:50;15.70;99.90
22925;DHT22;11628;51.072;3.712;2023-05-10T06:16:15;15.90;99.90
22925;DHT22;11628;51.072;3.712;2023-05-10T06:18:41;15.90;99.90
22925;DHT22;11628;51.072;3.712;2023-05-10T06:21:09;16.00;99.90
22925;DHT22;11628;51.072;3.712;2023-05-10T06:23:35;15.90;99.90
22925;DHT22;11628;51.072;3.712;2023-05-10T06:26:01;16.00;99.90
22925;DHT22;11628;51.072;3.712;2023-05-10T06:28:26;16.00;99.90
22925;DHT22;11628;51.072;3.712;2023-05-10T06:30:52;16.00;99.90
22925;DHT22;11628;51.072;3.712;2023-05-10T06:33:18;16.10;99.90
22925;DHT22;11628;51.072;3.712;2023-05-10T06:35:43;16.10;99.90
22925;DHT22;11628;51.072;3.712;2023-05-10T06:38:09;16.20;99.90
22925;DHT22;11628;51.072;3.712;2023-05-10T06:40:35;16.20;99.90
22925;DHT22;11628;51.072;3.712;2023-05-10T06:43:01;16.30;99.90
22925;DHT22;11628;51.072;3.712;2023-05-10T06:45:27;16.30;99.90
22925;DHT22;11628;51.072;3.712;2023-05-10T06:47:52;16.30;99.90
22925;DHT22;11628;51.072;3.712;2023-05-10T06:50:18;16.60;99.90
22925;DHT22;11628;51.072;3.712;2023-05-10T06:52:44;17.10;99.90
22925;DHT22;11628;51.072;3.712;2023-05-10T06:55:10;17.30;99.90
22925;DHT22;11628;51.072;3.712;2023-05-10T06:57:36;17.70;99.90
22925;DHT22;11628;51.072;3.712;2023-05-10T07:00:02;18.00;99.90
22925;DHT22;11628;51.072;3.712;2023-05-10T07:02:31;18.20;99.90
22925;DHT22;11628;51.072;3.712;2023-05-10T07:04:57;18.50;99.90
22925;DHT22;11628;51.072;3.712;2023-05-10T07:07:23;18.80;99.90
22925;DHT22;11628;51.072;3.712;2023-05-10T07:09:48;18.90;99.90
22925;DHT22;11628;51.072;3.712;2023-05-10T07:12:15;18.50;99.90
22925;DHT22;11628;51.072;3.712;2023-05-10T07:14:41;18.40;99.90
22925;DHT22;11628;51.072;3.712;2023-05-10T07:17:06;18.30;99.90
22925;DHT22;11628;51.072;3.712;2023-05-10T07:19:35;17.90;99.90
22925;DHT22;11628;51.072;3.712;2023-05-10T07:22:01;17.40;99.90
22925;DHT22;11628;51.072;3.712;2023-05-10T07:24:27;17.10;99.90
22925;DHT22;11628;51.072;3.712;2023-05-10T07:26:52;17.10;99.90
22925;DHT22;11628;51.072;3.712;2023-05-10T07:29:18;16.90;99.90
22925;DHT22;11628;51.072;3.712;2023-05-10T07:31:44;16.70;99.90
22925;DHT22;11628;51.072;3.712;2023-05-10T07:34:10;15.90;99.90
22925;DHT22;11628;51.072;3.712;2023-05-10T07:36:35;15.60;99.90
22925;DHT22;11628;51.072;3.712;2023-05-10T07:39:01;15.90;99.90
22925;DHT22;11628;51.072;3.712;2023-05-10T07:41:27;16.10;99.90
22925;DHT22;11628;51.072;3.712;2023-05-10T07:43:53;16.30;99.90
22925;DHT22;11628;51.072;3.712;2023-05-10T07:46:19;16.50;99.90
22925;DHT22;11628;51.072;3.712;2023-05-10T07:48:47;16.20;99.90
22925;DHT22;11628;51.072;3.712;2023-05-10T07:51:12;16.10;99.90
22925;DHT22;11628;51.072;3.712;2023-05-10T07:53:38;15.70;99.90
22925;DHT22;11628;51.072;3.712;2023-05-10T07:56:40;15.90;99.90
22925;DHT22;11628;51.072;3.712;2023-05-10T07:59:10;16.00;99.90
22925;DHT22;11628;51.072;3.712;2023-05-10T08:01:35;16.00;99.90
22925;DHT22;11628;51.072;3.712;2023-05-10T08:04:01;16.30;99.90
22925;DHT22;11628;51.072;3.712;2023-05-10T08:06:27;16.60;99.90
22925;DHT22;11628;51.072;3.712;2023-05-10T08:08:55;16.90;99.90
22925;DHT22;11628;51.072;3.712;2023-05-10T08:11:21;17.20;99.90
22925;DHT22;11628;51.072;3.712;2023-05-10T08:13:48;16.70;99.90
22925;DHT22;11628;51.072;3.712;2023-05-10T08:16:15;16.60;99.90
22925;DHT22;11628;51.072;3.712;2023-05-10T08:18:41;16.50;99.90
22925;DHT22;11628;51.072;3.712;2023-05-10T08:21:06;16.90;99.90
22925;DHT22;11628;51.072;3.712;2023-05-10T08:23:32;16.70;99.90
22925;DHT22;11628;51.072;3.712;2023-05-10T08:25:59;16.40;99.90
22925;DHT22;11628;51.072;3.712;2023-05-10T08:28:24;16.60;99.90
22925;DHT22;11628;51.072;3.712;2023-05-10T08:30:50;16.90;99.90
22925;DHT22;11628;51.072;3.712;2023-05-10T08:33:18;17.10;99.90
22925;DHT22;11628;51.072;3.712;2023-05-10T08:35:44;17.00;99.90
22925;DHT22;11628;51.072;3.712;2023-05-10T08:38:10;16.90;99.90
22925;DHT22;11628;51.072;3.712;2023-05-10T08:40:37;16.90;99.90
22925;DHT22;11628;51.072;3.712;2023-05-10T08:43:06;16.70;99.90
22925;DHT22;11628;51.072;3.712;2023-05-10T08:45:36;17.00;99.90
22925;DHT22;11628;51.072;3.712;2023-05-10T08:48:05;17.20;99.90
22925;DHT22;11628;51.072;3.712;2023-05-10T08:50:32;16.60;99.90
22925;DHT22;11628;51.072;3.712;2023-05-10T08:53:00;16.10;99.90
22925;DHT22;11628;51.072;3.712;2023-05-10T08:55:28;15.90;99.90
22925;DHT22;11628;51.072;3.712;2023-05-10T08:57:54;15.80;99.90
22925;DHT22;11628;51.072;3.712;2023-05-10T09:00:20;15.70;99.90
22925;DHT22;11628;51.072;3.712;2023-05-10T09:02:49;15.40;99.90
22925;DHT22;11628;51.072;3.712;2023-05-10T09:05:15;15.50;99.90
22925;DHT22;11628;51.072;3.712;2023-05-10T09:07:41;15.50;99.90
22925;DHT22;11628;51.072;3.712;2023-05-10T09:10:08;15.30;99.90
22925;DHT22;11628;51.072;3.712;2023-05-10T09:12:35;15.10;99.90
22925;DHT22;11628;51.072;3.712;2023-05-10T09:15:01;15.10;99.90
22925;DHT22;11628;51.072;3.712;2023-05-10T09:17:29;15.20;99.90
22925;DHT22;11628;51.072;3.712;2023-05-10T09:20:03;15.40;99.90
22925;DHT22;11628;51.072;3.712;2023-05-10T09:22:30;15.70;99.90
22925;DHT22;11628;51.072;3.712;2023-05-10T09:25:11;16.10;99.90
22925;DHT22;11628;51.072;3.712;2023-05-10T09:27:41;16.40;99.90
22925;DHT22;11628;51.072;3.712;2023-05-10T09:30:08;16.70;99.90
22925;DHT22;11628;51.072;3.712;2023-05-10T09:32:45;16.60;99.90
22925;DHT22;11628;51.072;3.712;2023-05-10T09:35:19;16.60;99.90
22925;DHT22;11628;51.072;3.712;2023-05-10T09:37:55;16.60;99.90
22925;DHT22;11628;51.072;3.712;2023-05-10T09:40:24;16.50;99.90
22925;DHT22;11628;51.072;3.712;2023-05-10T09:43:08;16.90;99.90
22925;DHT22;11628;51.072;3.712;2023-05-10T09:45:36;18.00;99.90
22925;DHT22;11628;51.072;3.712;2023-05-10T09:48:03;19.00;99.90
22925;DHT22;11628;51.072;3.712;2023-05-10T09:50:29;18.30;99.90
22925;DHT22;11628;51.072;3.712;2023-05-10T09:52:57;17.70;99.90
22925;DHT22;11628;51.072;3.712;2023-05-10T09:58:07;19.20;99.90
22925;DHT22;11628;51.072;3.712;2023-05-10T10:00:45;20.10;99.90
22925;DHT22;11628;51.072;3.712;2023-05-10T10:03:19;20.90;99.90
22925;DHT22;11628;51.072;3.712;2023-05-10T10:05:47;22.10;99.90
22925;DHT22;11628;51.072;3.712;2023-05-10T10:08:13;23.00;99.90
22925;DHT22;11628;51.072;3.712;2023-05-10T10:10:40;21.80;99.90
22925;DHT22;11628;51.072;3.712;2023-05-10T10:13:06;22.20;99.90
22925;DHT22;11628;51.072;3.712;2023-05-10T10:15:33;21.80;99.90
22925;DHT22;11628;51.072;3.712;2023-05-10T10:17:59;22.00;99.90
22925;DHT22;11628;51.072;3.712;2023-05-10T10:20:26;22.80;99.90
22925;DHT22;11628;51.072;3.712;2023-05-10T10:22:52;22.20;99.90
22925;DHT22;11628;51.072;3.712;2023-05-10T10:25:20;22.00;99.90
22925;DHT22;11628;51.072;3.712;2023-05-10T10:30:51;21.20;99.90
22925;DHT22;11628;51.072;3.712;2023-05-10T10:35:54;20.60;99.90
22925;DHT22;11628;51.072;3.712;2023-05-10T10:38:20;20.40;99.90
22925;DHT22;11628;51.072;3.712;2023-05-10T10:40:47;19.80;99.90
22925;DHT22;11628;51.072;3.712;2023-05-10T10:43:26;19.60;99.90
22925;DHT22;11628;51.072;3.712;2023-05-10T10:46:14;20.10;99.90
22925;DHT22;11628;51.072;3.712;2023-05-10T10:48:43;20.30;99.90
22925;DHT22;11628;51.072;3.712;2023-05-10T10:51:13;19.70;99.90
22925;DHT22;11628;51.072;3.712;2023-05-10T10:53:40;19.00;99.90
22925;DHT22;11628;51.072;3.712;2023-05-10T10:56:13;18.50;99.90
22925;DHT22;11628;51.072;3.712;2023-05-10T10:58:40;17.80;99.90
22925;DHT22;11628;51.072;3.712;2023-05-10T11:03:36;17.00;99.90
22925;DHT22;11628;51.072;3.712;2023-05-10T11:06:02;16.90;99.90
22925;DHT22;11628;51.072;3.712;2023-05-10T11:08:32;17.30;99.90
22925;DHT22;11628;51.072;3.712;2023-05-10T11:13:36;18.60;99.90
22925;DHT22;11628;51.072;3.712;2023-05-10T11:16:22;18.90;99.90
22925;DHT22;11628;51.072;3.712;2023-05-10T11:18:59;18.70;99.90
22925;DHT22;11628;51.072;3.712;2023-05-10T11:21:28;18.10;99.90
22925;DHT22;11628;51.072;3.712;2023-05-10T11:23:55;17.90;99.90
22925;DHT22;11628;51.072;3.712;2023-05-10T11:26:23;17.80;99.90
22925;DHT22;11628;51.072;3.712;2023-05-10T11:28:54;17.90;99.90
22925;DHT22;11628;51.072;3.712;2023-05-10T11:31:24;17.80;99.90
22925;DHT22;11628;51.072;3.712;2023-05-10T11:33:53;18.00;99.90
22925;DHT22;11628;51.072;3.712;2023-05-10T11:36:26;17.90;99.90
22925;DHT22;11628;51.072;3.712;2023-05-10T11:38:53;17.80;99.90
22925;DHT22;11628;51.072;3.712;2023-05-10T11:41:20;17.70;99.90
22925;DHT22;11628;51.072;3.712;2023-05-10T11:43:51;17.90;99.90
22925;DHT22;11628;51.072;3.712;2023-05-10T11:46:19;17.80;99.90
22925;DHT22;11628;51.072;3.712;2023-05-10T11:48:47;17.90;99.90
22925;DHT22;11628;51.072;3.712;2023-05-10T11:51:14;18.20;99.90
22925;DHT22;11628;51.072;3.712;2023-05-10T11:53:40;18.50;99.90
22925;DHT22;11628;51.072;3.712;2023-05-10T11:56:07;18.70;99.90
22925;DHT22;11628;51.072;3.712;2023-05-10T11:58:33;19.10;99.90
22925;DHT22;11628;51.072;3.712;2023-05-10T12:01:00;19.30;99.90
22925;DHT22;11628;51.072;3.712;2023-05-10T12:03:26;19.40;99.90
22925;DHT22;11628;51.072;3.712;2023-05-10T12:05:52;19.40;99.90
22925;DHT22;11628;51.072;3.712;2023-05-10T12:08:26;19.00;99.90
22925;DHT22;11628;51.072;3.712;2023-05-10T12:10:53;18.50;99.90
22925;DHT22;11628;51.072;3.712;2023-05-10T12:13:20;18.20;99.90
22925;DHT22;11628;51.072;3.712;2023-05-10T12:15:46;17.90;99.90
22925;DHT22;11628;51.072;3.712;2023-05-10T12:18:13;17.80;99.90
22925;DHT22;11628;51.072;3.712;2023-05-10T12:20:39;18.00;99.90
22925;DHT22;11628;51.072;3.712;2023-05-10T12:23:07;18.10;99.90
22925;DHT22;11628;51.072;3.712;2023-05-10T12:25:34;18.00;99.90
22925;DHT22;11628;51.072;3.712;2023-05-10T12:28:03;17.80;99.90
22925;DHT22;11628;51.072;3.712;2023-05-10T12:30:31;17.70;99.90
22925;DHT22;11628;51.072;3.712;2023-05-10T12:33:13;17.50;99.90
22925;DHT22;11628;51.072;3.712;2023-05-10T12:38:34;17.20;99.90
22925;DHT22;11628;51.072;3.712;2023-05-10T12:41:11;17.00;99.90
22925;DHT22;11628;51.072;3.712;2023-05-10T12:43:38;16.70;99.90
22925;DHT22;11628;51.072;3.712;2023-05-10T12:46:12;16.70;99.90
22925;DHT22;11628;51.072;3.712;2023-05-10T12:48:39;16.50;99.90
22925;DHT22;11628;51.072;3.712;2023-05-10T12:51:06;16.30;99.90
22925;DHT22;11628;51.072;3.712;2023-05-10T12:53:35;16.00;99.90
22925;DHT22;11628;51.072;3.712;2023-05-10T12:56:00;15.80;99.90
22925;DHT22;11628;51.072;3.712;2023-05-10T12:58:26;15.80;99.90
22925;DHT22;11628;51.072;3.712;2023-05-10T13:00:52;15.80;99.90
22925;DHT22;11628;51.072;3.712;2023-05-10T13:03:18;15.90;99.90
22925;DHT22;11628;51.072;3.712;2023-05-10T13:05:44;15.90;99.90
22925;DHT22;11628;51.072;3.712;2023-05-10T13:08:10;15.90;99.90
22925;DHT22;11628;51.072;3.712;2023-05-10T13:10:35;16.10;99.90
22925;DHT22;11628;51.072;3.712;2023-05-10T13:13:01;16.20;99.90
22925;DHT22;11628;51.072;3.712;2023-05-10T13:15:27;16.10;99.90
22925;DHT22;11628;51.072;3.712;2023-05-10T13:17:53;15.80;99.90
22925;DHT22;11628;51.072;3.712;2023-05-10T13:20:19;15.70;99.90
22925;DHT22;11628;51.072;3.712;2023-05-10T13:22:45;15.60;99.90
22925;DHT22;11628;51.072;3.712;2023-05-10T13:25:11;15.80;99.90
22925;DHT22;11628;51.072;3.712;2023-05-10T13:27:38;15.90;99.90
22925;DHT22;11628;51.072;3.712;2023-05-10T13:30:05;16.00;99.90
22925;DHT22;11628;51.072;3.712;2023-05-10T13:32:30;16.20;99.90
22925;DHT22;11628;51.072;3.712;2023-05-10T13:34:56;16.10;99.90
22925;DHT22;11628;51.072;3.712;2023-05-10T13:37:23;16.00;99.90
22925;DHT22;11628;51.072;3.712;2023-05-10T13:39:49;15.80;99.90
22925;DHT22;11628;51.072;3.712;2023-05-10T13:42:15;15.80;99.90
22925;DHT22;11628;51.072;3.712;2023-05-10T13:44:40;15.80;99.90
22925;DHT22;11628;51.072;3.712;2023-05-10T13:47:06;15.70;99.90
22925;DHT22;11628;51.072;3.712;2023-05-10T13:49:32;15.60;99.90
22925;DHT22;11628;51.072;3.712;2023-05-10T13:51:59;15.60;99.90
22925;DHT22;11628;51.072;3.712;2023-05-10T13:54:26;15.50;99.90
22925;DHT22;11628;51.072;3.712;2023-05-10T13:56:54;15.50;99.90
22925;DHT22;11628;51.072;3.712;2023-05-10T13:59:20;15.60;99.90
22925;DHT22;11628;51.072;3.712;2023-05-10T14:01:46;15.60;99.90
22925;DHT22;11628;51.072;3.712;2023-05-10T14:04:11;15.60;99.90
22925;DHT22;11628;51.072;3.712;2023-05-10T14:06:37;15.70;99.90
22925;DHT22;11628;51.072;3.712;2023-05-10T14:09:03;15.80;99.90
22925;DHT22;11628;51.072;3.712;2023-05-10T14:11:29;15.90;99.90
22925;DHT22;11628;51.072;3.712;2023-05-10T14:13:55;15.90;99.90
22925;DHT22;11628;51.072;3.712;2023-05-10T14:16:21;15.90;99.90
22925;DHT22;11628;51.072;3.712;2023-05-10T14:18:47;15.90;99.90
22925;DHT22;11628;51.072;3.712;2023-05-10T14:21:13;15.90;99.90
22925;DHT22;11628;51.072;3.712;2023-05-10T14:23:39;16.10;99.90
22925;DHT22;11628;51.072;3.712;2023-05-10T14:26:04;16.10;99.90
22925;DHT22;11628;51.072;3.712;2023-05-10T14:28:30;16.30;99.90
22925;DHT22;11628;51.072;3.712;2023-05-10T14:30:56;16.50;99.90
22925;DHT22;11628;51.072;3.712;2023-05-10T14:33:22;16.70;99.90
22925;DHT22;11628;51.072;3.712;2023-05-10T14:35:48;16.80;99.90
22925;DHT22;11628;51.072;3.712;2023-05-10T14:38:14;17.00;99.90
22925;DHT22;11628;51.072;3.712;2023-05-10T14:40:40;17.10;99.90
22925;DHT22;11628;51.072;3.712;2023-05-10T14:43:06;17.30;99.90
22925;DHT22;11628;51.072;3.712;2023-05-10T14:45:31;17.40;99.90
22925;DHT22;11628;51.072;3.712;2023-05-10T14:47:58;17.60;99.90
22925;DHT22;11628;51.072;3.712;2023-05-10T14:50:24;17.70;99.90
22925;DHT22;11628;51.072;3.712;2023-05-10T14:52:50;17.80;99.90
22925;DHT22;11628;51.072;3.712;2023-05-10T14:55:16;17.90;99.90
22925;DHT22;11628;51.072;3.712;2023-05-10T14:57:42;17.90;99.90
22925;DHT22;11628;51.072;3.712;2023-05-10T15:00:09;18.00;99.90
22925;DHT22;11628;51.072;3.712;2023-05-10T15:02:36;18.10;99.90
22925;DHT22;11628;51.072;3.712;2023-05-10T15:05:02;18.20;99.90
22925;DHT22;11628;51.072;3.712;2023-05-10T15:07:27;18.30;99.90
22925;DHT22;11628;51.072;3.712;2023-05-10T15:09:53;18.40;99.90
22925;DHT22;11628;51.072;3.712;2023-05-10T15:12:20;18.50;99.90
22925;DHT22;11628;51.072;3.712;2023-05-10T15:14:46;18.60;99.90
22925;DHT22;11628;51.072;3.712;2023-05-10T15:17:11;18.70;99.90
22925;DHT22;11628;51.072;3.712;2023-05-10T15:19:37;18.80;99.90
22925;DHT22;11628;51.072;3.712;2023-05-10T15:22:04;18.90;99.90
22925;DHT22;11628;51.072;3.712;2023-05-10T15:24:31;19.00;99.90
22925;DHT22;11628;51.072;3.712;2023-05-10T15:26:57;19.00;99.90
22925;DHT22;11628;51.072;3.712;2023-05-10T15:29:24;19.10;99.90
22925;DHT22;11628;51.072;3.712;2023-05-10T15:31:50;19.10;99.90
22925;DHT22;11628;51.072;3.712;2023-05-10T15:34:17;19.20;99.90
22925;DHT22;11628;51.072;3.712;2023-05-10T15:36:43;19.40;99.90
22925;DHT22;11628;51.072;3.712;2023-05-10T15:39:09;19.50;99.90
22925;DHT22;11628;51.072;3.712;2023-05-10T15:41:35;19.70;99.90
22925;DHT22;11628;51.072;3.712;2023-05-10T15:44:01;19.90;99.90
22925;DHT22;11628;51.072;3.712;2023-05-10T15:46:27;20.00;99.90
22925;DHT22;11628;51.072;3.712;2023-05-10T15:48:54;20.20;99.90
22925;DHT22;11628;51.072;3.712;2023-05-10T15:51:20;20.40;99.90
22925;DHT22;11628;51.072;3.712;2023-05-10T15:53:46;20.70;99.90
22925;DHT22;11628;51.072;3.712;2023-05-10T15:56:11;21.00;99.90
22925;DHT22;11628;51.072;3.712;2023-05-10T15:58:38;21.10;99.90